Terminal Aerodrome Forecast
Issued by NWS St Louis, MO

Home | Current Version | Previous Version | Text Only | Print | Product List | Glossary On
Versions: 1 2 3 4 5 6 7 8 9 10 11 12 13 14 15 16 17 18 19 20 21 22 23 24 25 26
014
FTUS43 KLSX 191732
TAFCOU
TAF
KCOU 191732Z 1918/2018 12005KT 3SM BR VCSH OVC003
      TEMPO 1918/1922 1SM BR
     FM200500 17004KT 1SM BR OVC003
     FM201000 VRB03KT 1/2SM FG OVC003
     FM201600 13007KT 3SM BR OVC008=

USA.gov is the U.S. government's official web portal to all federal, state and local government web resources and services.